createdAt,value
2023-03-10T00:00:49.004Z,77.33
2023-03-10T00:05:52.202Z,76.87
2023-03-10T00:10:56.845Z,76.81
2023-03-10T00:16:00.110Z,77.11
2023-03-10T00:21:03.387Z,77.18
2023-03-10T00:26:08.314Z,76.62
2023-03-10T00:31:12.766Z,77.43
2023-03-10T00:36:17.890Z,77.18
2023-03-10T00:41:24.327Z,77.48
2023-03-10T00:46:28.244Z,77.48
2023-03-10T00:51:31.489Z,77.22
2023-03-10T00:56:36.064Z,77.68
2023-03-10T01:01:41.473Z,77.69
2023-03-10T01:06:47.635Z,77.63
2023-03-10T01:11:52.244Z,77.72
2023-03-10T01:16:55.405Z,78.16
2023-03-10T01:21:58.592Z,78.43
2023-03-10T01:27:03.177Z,77.85
2023-03-10T01:32:07.078Z,78.10
2023-03-10T01:37:10.250Z,77.94
2023-03-10T01:42:14.816Z,78.18
2023-03-10T01:47:17.967Z,78.40
2023-03-10T01:52:24.591Z,78.18
2023-03-10T01:57:33.672Z,77.94
2023-03-10T02:02:38.901Z,78.36
2023-03-10T02:07:44.453Z,78.47
2023-03-10T02:12:49.005Z,78.13
2023-03-10T02:17:54.623Z,78.23
2023-03-10T02:22:57.786Z,78.23
2023-03-10T02:28:02.491Z,77.88
2023-03-10T02:33:09.104Z,77.96
2023-03-10T02:38:12.295Z,77.71
2023-03-10T02:43:20.213Z,78.13
2023-03-10T02:48:28.344Z,78.06
2023-03-10T02:53:31.848Z,78.21
2023-03-10T02:58:37.739Z,78.47
2023-03-10T03:03:41.245Z,78.15
2023-03-10T03:08:44.461Z,78.54
2023-03-10T03:13:49.063Z,78.02
2023-03-10T03:18:52.212Z,78.18
2023-03-10T03:23:55.464Z,77.99
2023-03-10T03:29:00.450Z,78.19
2023-03-10T03:34:04.579Z,78.02
2023-03-10T03:39:07.767Z,78.33
2023-03-10T03:44:12.311Z,78.67
2023-03-10T03:49:15.452Z,78.52
2023-03-10T03:54:18.558Z,78.20
2023-03-10T03:59:23.192Z,78.44
2023-03-10T04:04:26.356Z,78.09
2023-03-10T04:09:30.192Z,78.48
2023-03-10T04:14:36.010Z,78.70
2023-03-10T04:19:39.126Z,78.79
2023-03-10T04:24:42.270Z,78.25
2023-03-10T04:29:46.799Z,78.62
2023-03-10T04:34:49.972Z,78.54
2023-03-10T04:39:53.086Z,78.28
2023-03-10T04:44:57.772Z,78.48
2023-03-10T04:50:00.913Z,78.36
2023-03-10T04:55:04.243Z,78.32
2023-03-10T05:00:12.662Z,78.83
2023-03-10T05:05:15.953Z,79.06
2023-03-10T05:10:19.436Z,78.83
2023-03-10T05:15:24.105Z,79.19
2023-03-10T05:20:27.288Z,79.28
2023-03-10T05:25:30.726Z,79.50
2023-03-10T05:30:35.296Z,79.02
2023-03-10T05:35:39.163Z,79.41
2023-03-10T05:40:43.186Z,79.10
2023-03-10T05:45:56.378Z,79.12
2023-03-10T05:51:01.064Z,79.15
2023-03-10T05:56:07.607Z,78.84
2023-03-10T06:01:12.312Z,78.53
2023-03-10T06:06:15.460Z,78.96
2023-03-10T06:11:18.623Z,79.28
2023-03-10T06:16:23.411Z,79.27
2023-03-10T06:21:28.422Z,79.14
2023-03-10T06:26:31.306Z,80.00
2023-03-10T06:31:36.469Z,79.44
2023-03-10T06:36:40.548Z,80.06
2023-03-10T06:41:43.727Z,79.82
2023-03-10T06:46:48.556Z,80.42
2023-03-10T06:51:51.724Z,80.46
2023-03-10T06:56:54.924Z,80.66
2023-03-10T07:01:59.517Z,80.46
2023-03-10T07:07:02.640Z,80.35
2023-03-10T07:12:06.406Z,80.50
2023-03-10T07:17:11.062Z,80.69
2023-03-10T07:22:14.226Z,80.35
2023-03-10T07:27:17.412Z,80.76
2023-03-10T07:32:21.965Z,80.72
2023-03-10T07:37:25.161Z,80.69
2023-03-10T07:42:28.390Z,80.59
2023-03-10T07:47:33.172Z,81.01
2023-03-10T07:52:36.336Z,81.38
2023-03-10T07:57:39.472Z,80.83
2023-03-10T08:02:44.400Z,80.78
2023-03-10T08:07:47.271Z,82.38
2023-03-10T08:12:50.414Z,81.23
2023-03-10T08:17:55.002Z,80.65
2023-03-10T08:22:58.151Z,80.69
2023-03-10T08:28:01.310Z,80.81
2023-03-10T08:33:07.771Z,80.19
2023-03-10T08:38:10.968Z,80.73
2023-03-10T08:43:14.104Z,79.41
2023-03-10T08:48:18.647Z,79.46
2023-03-10T08:53:21.824Z,79.46
2023-03-10T08:58:24.968Z,78.68
2023-03-10T09:03:31.569Z,77.75
2023-03-10T09:08:35.302Z,76.41
2023-03-10T09:13:39.447Z,76.05
2023-03-10T09:18:44.398Z,75.99
2023-03-10T09:23:50.174Z,76.07
2023-03-10T09:28:56.760Z,74.88
2023-03-10T09:34:01.924Z,75.64
2023-03-10T09:39:05.914Z,74.62
2023-03-10T09:44:25.334Z,75.28
2023-03-10T09:49:34.905Z,74.71
2023-03-10T09:54:47.068Z,72.50
2023-03-10T09:59:53.936Z,69.81
2023-03-10T10:05:04.043Z,68.55
2023-03-10T10:10:14.381Z,68.30
2023-03-10T10:15:21.432Z,69.24
2023-03-10T10:20:30.155Z,70.12
2023-03-10T10:25:33.865Z,70.77
2023-03-10T10:30:38.901Z,71.15
2023-03-10T10:35:46.357Z,69.45
2023-03-10T10:40:51.419Z,69.31
2023-03-10T10:45:56.366Z,68.02
2023-03-10T10:51:00.936Z,68.15
2023-03-10T10:56:05.976Z,63.51
2023-03-10T11:01:12.767Z,61.02
2023-03-10T11:06:27.275Z,55.16
2023-03-10T11:11:37.141Z,51.45
2023-03-10T11:16:50.126Z,49.03
2023-03-10T11:22:00.688Z,50.96
2023-03-10T11:27:10.548Z,53.41
2023-03-10T11:32:22.071Z,52.63
2023-03-10T11:37:34.342Z,52.51
2023-03-10T11:42:44.324Z,56.09
2023-03-10T11:47:58.350Z,58.31
2023-03-10T11:53:07.932Z,56.51
2023-03-10T11:58:22.416Z,56.44
2023-03-10T12:03:30.021Z,53.22
2023-03-10T12:08:36.349Z,54.12
2023-03-10T12:13:46.068Z,56.55
2023-03-10T12:18:49.687Z,58.17
2023-03-10T12:23:56.062Z,59.81
2023-03-10T12:29:25.396Z,62.18
2023-03-10T12:34:31.730Z,61.99
2023-03-10T12:39:41.896Z,63.60
2023-03-10T12:44:51.883Z,64.47
2023-03-10T12:49:59.355Z,65.35
2023-03-10T12:55:24.300Z,62.55
2023-03-10T13:00:36.717Z,58.36
2023-03-10T13:05:42.884Z,57.46
2023-03-10T13:10:47.838Z,59.63
2023-03-10T13:15:59.404Z,58.60
2023-03-10T13:21:02.702Z,57.98
2023-03-10T13:26:09.310Z,59.69
2023-03-10T13:31:20.711Z,60.33
2023-03-10T13:36:31.473Z,57.42
2023-03-10T13:41:37.687Z,58.94
2023-03-10T13:46:40.921Z,57.70
2023-03-10T13:51:54.534Z,54.28
2023-03-10T13:57:03.202Z,55.40
2023-03-10T14:02:14.759Z,54.22
2023-03-10T14:07:19.738Z,51.64
2023-03-10T14:12:38.709Z,53.81
2023-03-10T14:17:43.289Z,54.24
2023-03-10T14:22:46.516Z,56.80
2023-03-10T14:27:56.288Z,58.82
2023-03-10T14:33:02.054Z,60.73
2023-03-10T14:38:05.286Z,59.89
2023-03-10T14:43:16.929Z,56.23
2023-03-10T14:48:23.247Z,57.58
2023-03-10T14:53:28.355Z,59.35
2023-03-10T14:58:34.812Z,60.15
2023-03-10T15:03:37.968Z,59.83
2023-03-10T15:08:41.400Z,60.84
2023-03-10T15:13:46.061Z,60.94
2023-03-10T15:18:49.396Z,61.66
2023-03-10T15:23:52.587Z,61.66
2023-03-10T15:28:57.151Z,62.36
2023-03-10T15:34:00.008Z,61.79
2023-03-10T15:39:03.448Z,59.98
2023-03-10T15:44:08.768Z,60.82
2023-03-10T15:49:11.870Z,61.36
2023-03-10T15:54:15.009Z,61.67
2023-03-10T15:59:20.791Z,61.13
2023-03-10T16:04:24.215Z,62.02
2023-03-10T16:09:27.422Z,61.62
2023-03-10T16:14:32.163Z,61.52
2023-03-10T16:19:35.365Z,61.22
2023-03-10T16:24:38.493Z,61.43
2023-03-10T16:29:43.291Z,61.99
2023-03-10T16:34:46.703Z,62.24
2023-03-10T16:39:49.872Z,63.16
2023-03-10T16:44:56.857Z,64.59
2023-03-10T16:50:00.306Z,65.34
2023-03-10T16:55:05.214Z,66.22
2023-03-10T17:00:12.327Z,67.33
2023-03-10T17:05:15.690Z,67.87
2023-03-10T17:10:19.037Z,68.21
2023-03-10T17:15:23.606Z,69.29
2023-03-10T17:20:27.172Z,69.36
2023-03-10T17:25:30.358Z,70.25
2023-03-10T17:30:35.025Z,70.19
2023-03-10T17:35:38.878Z,71.37
2023-03-10T17:40:42.900Z,70.27
2023-03-10T17:45:57.086Z,70.05
2023-03-10T17:51:00.546Z,69.80
2023-03-10T17:56:07.979Z,70.00
2023-03-10T18:01:15.046Z,69.85
2023-03-10T18:06:20.749Z,70.61
2023-03-10T18:11:24.631Z,70.53
2023-03-10T18:16:32.704Z,71.17
2023-03-10T18:21:35.939Z,71.23
2023-03-10T18:26:43.387Z,71.64
2023-03-10T18:31:47.964Z,71.68
2023-03-10T18:36:52.016Z,71.64
2023-03-10T18:41:55.332Z,71.69
2023-03-10T18:46:59.887Z,71.62
2023-03-10T18:52:03.040Z,71.94
2023-03-10T18:57:06.304Z,72.26
2023-03-10T19:02:15.137Z,72.56
2023-03-10T19:07:20.499Z,72.98
2023-03-10T19:12:25.000Z,72.87
2023-03-10T19:17:29.573Z,72.58
2023-03-10T19:22:34.974Z,72.73
2023-03-10T19:27:40.443Z,72.85
2023-03-10T19:32:45.400Z,72.92
2023-03-10T19:37:48.515Z,73.32
2023-03-10T19:42:51.835Z,73.61
2023-03-10T19:47:58.000Z,74.09
2023-03-10T19:53:01.151Z,73.98
2023-03-10T19:58:04.317Z,75.59
2023-03-10T20:03:08.977Z,75.30
2023-03-10T20:08:11.877Z,76.19
2023-03-10T20:13:15.159Z,75.61
2023-03-10T20:18:21.234Z,75.58
2023-03-10T20:23:24.722Z,75.17
2023-03-10T20:28:27.870Z,75.50
2023-03-10T20:33:32.780Z,76.04
2023-03-10T20:38:36.009Z,75.94
2023-03-10T20:43:39.207Z,75.65
2023-03-10T20:48:43.766Z,76.25
2023-03-10T20:53:46.976Z,76.25
2023-03-10T20:58:50.159Z,76.67
2023-03-10T21:03:54.975Z,76.98
2023-03-10T21:08:58.180Z,76.85
2023-03-10T21:14:01.359Z,76.81
2023-03-10T21:19:06.781Z,77.19
2023-03-10T21:24:10.347Z,77.25
2023-03-10T21:29:13.568Z,77.21
2023-03-10T21:34:18.115Z,77.14
2023-03-10T21:39:21.465Z,77.14
2023-03-10T21:44:24.651Z,77.26
2023-03-10T21:49:29.148Z,77.63
2023-03-10T21:54:32.345Z,78.27
2023-03-10T21:59:35.480Z,79.09
2023-03-10T22:04:40.376Z,79.01
2023-03-10T22:09:43.867Z,79.57
2023-03-10T22:14:47.699Z,79.85
2023-03-10T22:19:54.901Z,80.90
2023-03-10T22:24:58.347Z,80.22
2023-03-10T22:30:01.781Z,80.53
2023-03-10T22:35:07.511Z,80.91
2023-03-10T22:40:16.313Z,80.80
2023-03-10T22:45:21.670Z,81.39
2023-03-10T22:50:28.167Z,81.42
2023-03-10T22:55:35.706Z,82.08
2023-03-10T23:00:40.626Z,81.70
2023-03-10T23:05:46.163Z,81.66
2023-03-10T23:10:49.358Z,81.39
2023-03-10T23:15:52.747Z,82.44
2023-03-10T23:20:57.442Z,82.76
2023-03-10T23:26:00.945Z,82.26
2023-03-10T23:31:04.598Z,82.82
2023-03-10T23:36:11.832Z,82.12
2023-03-10T23:41:15.317Z,82.64
2023-03-10T23:46:18.568Z,82.87
2023-03-10T23:51:23.134Z,82.85
2023-03-10T23:56:26.288Z,82.78
